Annville, Pennsylvania
Current Conditions -  °F | °C
As of 1:30 PM on Wednesday 26 Nov 2014 (Local Time) from KMUI Reporting Station
Freezing Rain Freezing Rain  
Wind Chill: 34°   Ceiling: 800
Heat Index: 34°   Visibility: 10mi
Dew Point: 32°   Wind: 3mph
Humidity: 93%   Direction: 60°ENE
Pressure: 29.95"   Gusts: NA
Location:  40.33°N, 76.51°W
Report Text: KMUI 261830Z AUTO 06003KT 10SM -FZRA BKN008 OVC016 01/00 A2995 RMK AO2 RAB1758E1759B1821SNE1758B1805E1820RAB1759E1805B1820E1821 CIG 008V016 BKN V SCT PRESFR $
Loading
Personal Weather Stations






























Interactive Weather Map New forecast layout! Learn more

10-Day Weather Forecast

Advertisements
Track Severe Weather on mobile